Main page
METAR-TAF:

METAR-TAF

Airports :

Andorra–La Seu d'Urgell Airport

La Seu d'Urgell, Spain

latitude: 42-20-29N, longitude: 001-24-17E, elevation: 802 m

Current weather observation

The report was made 17 hours and 49 minutes ago, at 16:00 UTC
Wind 1 kt from variable directions
Temperature 5°C
Humidity 75%
Pressure 1017 hPa
Visibility 10 km or more
Broken clouds at a height of 5600 ft

METAR: LESU 051600Z VRB01KT 9999 BKN056 05/01 Q1017

Time: 10:49 (09:49 UTC)

Forecast

The report was made 19 hours and 49 minutes ago, at 14:00 UTC
Forecast valid from 05 at 15 UTC to 06 at 15 UTC
Wind 3 kt from variable directions
Visibility 10 km or more
Few clouds at a height of 2000 ft

TAF: LESU 051400Z 0515/0615 VRB03KT 9999 FEW020 TX15/0614Z TN01/0606Z

Weather observations and forecasts of more than 4000 airports (METAR and TAF reports).

The available stations are represented by yellow and red dots on the map.

Hover mouse over dot to see the name of the station.

Then click to see weather observations and forecasts.

To change the map : click on the green buttons with a black cross to zoom in, on the green button with a dash to zoom out, or on the green arrows for adjacent maps.


METAR-TAF: